Poio, Spain
Current Conditions -  °F | °C
As of 6:00 PM on Friday 24 Oct 2014 (Local Time) from LEVX Reporting Station
Clear Clear  
Wind Chill: 77°   Ceiling: Unl
Heat Index: 79°   Visibility: 6mi
Dew Point: 63°   Wind: 1mph
Humidity: 61%   Direction: NA
Pressure: 30.09"   Gusts: NA
Location:  42.44°N, 8.71°W
Report Text: LEVX 241600Z VRB01KT CAVOK 25/17 Q1019 NOSIG
Loading
Personal Weather Stations






























Interactive Weather Map
Tropical Storm Tracking
New forecast layout! Learn more

10-Day Weather Forecast

Advertisements
Track Severe Weather on mobile